Time;durP1;ratioP1;P1;durP2;ratioP2;P2;SDS_P1;SDS_P2;PMS_P1;PMS_P2;Temp;Humidity;BMP_temperature;BMP_pressure;BME280_temperature;BME280_humidity;BME280_pressure;Samples;Min_cycle;Max_cycle;Signal;HPM_P1;HPM_P2
2023/10/17 00:03:37;;;;;;;3.50;2.45;;;;;;;7.19;67.93;99337.25;7257849;40;20375;31
2023/10/17 00:09:21;;;;;;;3.43;2.47;;;;;;;7.18;68.51;99346.28;7238361;40;20434;31
2023/10/17 00:14:58;;;;;;;4.17;2.60;;;;;;;7.19;67.90;99347.97;7231893;40;20276;31
2023/10/17 00:20:29;;;;;;;4.30;2.50;;;;;;;7.19;67.86;99339.09;7265287;40;20269;31
2023/10/17 00:26:02;;;;;;;5.30;2.35;;;;;;;7.17;68.32;99328.50;7244862;40;20362;31
2023/10/17 00:31:36;;;;;;;5.70;2.70;;;;;;;7.13;68.15;99319.06;7247211;40;20409;31
2023/10/17 00:37:11;;;;;;;3.73;2.70;;;;;;;7.04;70.02;99327.09;7228881;40;20333;31
2023/10/17 00:42:49;;;;;;;4.70;3.00;;;;;;;6.98;68.97;99333.84;7236898;40;20256;31
2023/10/17 00:48:25;;;;;;;5.30;2.90;;;;;;;6.97;68.66;99326.81;7216326;40;20289;31
2023/10/17 00:59:07;;;;;;;7.03;2.97;;;;;;;6.92;69.52;99317.50;7314924;39;20288;31
2023/10/17 01:04:44;;;;;;;5.00;2.90;;;;;;;6.93;69.77;99309.34;7294573;39;20296;31
2023/10/17 01:10:09;;;;;;;3.80;2.57;;;;;;;6.98;68.86;99315.09;7293852;39;20237;31
2023/10/17 01:15:38;;;;;;;3.35;2.60;;;;;;;6.87;70.14;99312.56;7297718;39;20327;31
2023/10/17 01:20:58;;;;;;;3.05;2.50;;;;;;;6.86;69.36;99320.72;7219241;40;20664;31
2023/10/17 01:26:37;;;;;;;4.77;2.63;;;;;;;6.86;69.96;99310.00;7242129;40;20360;31
2023/10/17 01:32:09;;;;;;;2.95;2.60;;;;;;;6.83;70.43;99311.16;7254002;40;20257;31
2023/10/17 01:37:45;;;;;;;4.17;2.70;;;;;;;6.80;70.76;99316.81;7286185;39;20255;31
2023/10/17 01:43:22;;;;;;;5.30;2.90;;;;;;;6.72;70.51;99312.12;7225710;40;20726;31
2023/10/17 01:49:13;;;;;;;4.30;3.30;;;;;;;6.76;70.65;99304.66;7228445;40;20713;31
2023/10/17 01:59:53;;;;;;;5.40;3.30;;;;;;;6.73;70.81;99292.41;7185303;40;20420;31
2023/10/17 02:05:15;;;;;;;4.50;2.97;;;;;;;6.67;70.26;99286.75;7208308;40;20860;31
2023/10/17 02:10:36;;;;;;;3.47;2.83;;;;;;;6.69;70.25;99284.78;7268918;39;20296;31
2023/10/17 02:16:12;;;;;;;4.10;2.50;;;;;;;6.66;70.18;99274.34;7256882;39;20288;31
2023/10/17 02:21:32;;;;;;;3.80;2.50;;;;;;;6.67;70.69;99278.72;7213962;40;20261;31
2023/10/17 02:26:56;;;;;;;6.00;2.80;;;;;;;6.66;70.86;99288.59;7224204;40;20273;31
2023/10/17 02:32:32;;;;;;;4.77;2.80;;;;;;;6.67;70.72;99295.62;7233068;40;20699;31
2023/10/17 02:38:08;;;;;;;4.63;2.70;;;;;;;6.76;70.85;99280.53;7252426;39;20815;31
2023/10/17 02:43:29;;;;;;;4.80;3.00;;;;;;;6.72;70.79;99282.66;7259055;40;20876;31
2023/10/17 02:49:07;;;;;;;5.00;2.75;;;;;;;6.72;71.35;99284.50;7226851;40;20740;31
2023/10/17 02:54:28;;;;;;;3.70;2.67;;;;;;;6.80;70.60;99298.06;7175466;40;20386;31
2023/10/17 03:05:50;;;;;;;4.10;3.15;;;;;;;6.73;70.33;99305.78;7226873;40;20904;31
2023/10/17 03:11:35;;;;;;;5.23;2.90;;;;;;;6.68;71.94;99307.19;7235307;40;20461;31
2023/10/17 03:16:40;;;;;;;4.23;2.70;;;;;;;6.65;71.47;99299.44;7260135;40;20774;31
2023/10/17 03:22:24;;;;;;;3.65;2.70;;;;;;;6.59;72.02;99282.09;7248639;40;20242;31
2023/10/17 03:27:48;;;;;;;4.97;2.87;;;;;;;6.67;71.34;99284.91;7228218;40;20246;31
2023/10/17 03:33:08;;;;;;;4.00;2.70;;;;;;;6.72;71.59;99279.97;7197556;40;20687;31
2023/10/17 03:38:41;;;;;;;4.80;3.00;;;;;;;6.61;71.71;99276.59;7240705;40;20970;31
2023/10/17 03:44:15;;;;;;;4.30;2.80;;;;;;;6.66;70.96;99269.00;7288387;39;20264;31
2023/10/17 03:49:37;;;;;;;3.40;2.70;;;;;;;6.72;70.43;99276.44;7282081;39;20239;31
2023/10/17 03:55:11;;;;;;;3.73;3.00;;;;;;;6.71;70.61;99272.91;7094490;39;21863;31
2023/10/17 04:00:44;;;;;;;4.55;2.75;;;;;;;6.76;71.06;99269.81;7257784;40;20510;31
2023/10/17 04:06:18;;;;;;;4.47;2.47;;;;;;;6.58;72.27;99255.47;7256619;40;20381;31
2023/10/17 04:11:55;;;;;;;4.25;2.90;;;;;;;6.54;72.21;99270.94;7238332;40;20314;31
2023/10/17 04:17:14;;;;;;;4.55;2.80;;;;;;;6.66;71.50;99260.97;7260472;40;20374;31
2023/10/17 04:22:47;;;;;;;7.40;3.00;;;;;;;6.72;71.57;99255.88;7266905;39;20503;31
2023/10/17 04:33:29;;;;;;;4.15;2.90;;;;;;;6.69;71.22;99247.28;7262188;40;20419;31
2023/10/17 04:39:11;;;;;;;4.80;2.90;;;;;;;6.77;71.15;99244.75;7264928;40;20345;31
2023/10/17 04:44:52;;;;;;;4.33;3.03;;;;;;;6.64;71.08;99241.50;7276447;40;20770;31
2023/10/17 04:50:40;;;;;;;5.90;3.00;;;;;;;6.57;71.87;99248.41;7213415;40;20271;31
2023/10/17 04:56:11;;;;;;;5.30;2.60;;;;;;;6.61;71.12;99250.66;7258142;40;20460;31
2023/10/17 05:01:39;;;;;;;6.10;3.10;;;;;;;6.57;71.17;99259.13;7217740;40;20264;31
2023/10/17 05:07:16;;;;;;;5.37;3.43;;;;;;;6.50;72.10;99253.47;7279093;39;20395;31
2023/10/17 06:18:56;;;;;;;4.83;3.20;;;;;;;6.53;71.44;99263.91;7321203;39;20382;31
2023/10/17 06:24:45;;;;;;;4.50;2.80;;;;;;;6.57;71.63;99259.97;7258890;40;21335;31
2023/10/17 06:35:23;;;;;;;4.90;2.80;;;;;;;6.59;71.39;99265.16;7227720;40;20250;31
2023/10/17 06:41:11;;;;;;;3.50;2.50;;;;;;;6.62;71.70;99263.09;7205425;40;20251;31
2023/10/17 06:46:33;;;;;;;5.37;3.00;;;;;;;6.79;70.61;99266.88;7189919;40;20399;31
2023/10/17 06:57:19;;;;;;;4.70;3.03;;;;;;;6.85;70.70;99271.66;7209060;40;20289;31
2023/10/17 07:07:53;;;;;;;4.54;2.42;;;;;;;7.01;70.46;99268.44;7327012;39;20273;31
2023/10/17 07:28:57;;;;;;;6.05;3.05;;;;;;;7.33;69.61;99262.75;7385548;39;20263;31
2023/10/17 07:39:37;;;;;;;4.50;2.70;;;;;;;7.40;70.11;99272.75;7339779;39;20407;31
2023/10/17 07:50:16;;;;;;;3.87;2.70;;;;;;;7.37;69.50;99261.47;7363667;39;20403;31
2023/10/17 07:55:54;;;;;;;5.37;3.00;;;;;;;7.41;69.71;99253.00;7365178;39;20254;31
2023/10/17 08:01:33;;;;;;;4.65;2.50;;;;;;;7.48;69.50;99256.75;7227518;40;20238;31
2023/10/17 08:07:13;;;;;;;4.43;3.10;;;;;;;7.59;69.12;99261.13;7258624;40;20331;31
2023/10/17 08:12:33;;;;;;;7.20;3.83;;;;;;;7.73;68.74;99265.97;7219938;40;20703;31
2023/10/17 08:18:06;;;;;;;6.45;3.60;;;;;;;7.83;68.53;99268.63;7208975;40;20262;31
2023/10/17 08:23:42;;;;;;;5.60;4.70;;;;;;;7.88;67.97;99272.56;7239916;40;20642;31
2023/10/17 08:29:08;;;;;;;8.90;5.50;;;;;;;8.01;68.10;99269.53;7255960;40;20252;31
2023/10/17 08:34:24;;;;;;;10.30;6.25;;;;;;;8.10;67.64;99277.56;7280528;40;20450;31
2023/10/17 08:39:52;;;;;;;8.73;6.33;;;;;;;8.05;68.09;99277.16;7246252;40;20257;31
2023/10/17 08:50:30;;;;;;;10.00;6.30;;;;;;;8.24;66.92;99262.78;7263843;40;20299;31
2023/10/17 08:56:07;;;;;;;10.95;6.35;;;;;;;8.29;67.92;99260.53;7232893;40;20357;31
2023/10/17 09:01:40;;;;;;;9.35;6.20;;;;;;;8.37;67.74;99249.03;7231883;40;20386;31
2023/10/17 09:07:22;;;;;;;8.15;5.80;;;;;;;8.47;66.72;99255.16;7237979;40;20814;31
2023/10/17 09:13:14;;;;;;;9.23;6.23;;;;;;;8.52;66.35;99263.63;7206060;40;20464;31
2023/10/17 09:18:43;;;;;;;7.93;6.13;;;;;;;8.62;66.48;99258.19;7292704;39;20323;31
2023/10/17 09:24:20;;;;;;;8.97;6.17;;;;;;;8.75;65.60;99272.94;7310634;39;20256;31
2023/10/17 09:30:00;;;;;;;9.10;6.53;;;;;;;8.89;65.99;99266.19;7275493;40;20319;31
2023/10/17 09:35:38;;;;;;;6.27;5.03;;;;;;;9.02;65.88;99267.47;7207793;40;20312;31
2023/10/17 09:41:17;;;;;;;8.95;5.50;;;;;;;9.08;65.04;99270.53;7209375;40;20818;31
2023/10/17 09:51:53;;;;;;;7.83;5.07;;;;;;;9.19;65.16;99270.28;7216557;40;20265;31
2023/10/17 10:02:34;;;;;;;7.47;4.70;;;;;;;9.22;64.80;99253.81;7326396;39;20278;31
2023/10/17 10:08:10;;;;;;;6.70;4.50;;;;;;;9.32;65.04;99255.44;7297413;39;20260;31
2023/10/17 10:13:46;;;;;;;5.03;4.30;;;;;;;9.41;65.32;99262.56;7238413;40;20242;31
2023/10/17 10:19:21;;;;;;;5.10;4.00;;;;;;;9.43;64.83;99262.41;7202204;40;20395;31
2023/10/17 10:24:58;;;;;;;5.55;4.20;;;;;;;9.47;64.91;99266.47;7258064;40;20428;31
2023/10/17 10:30:48;;;;;;;8.50;4.67;;;;;;;9.53;64.75;99263.13;7267048;40;20397;31
2023/10/17 10:41:28;;;;;;;7.97;4.53;;;;;;;9.76;64.60;99261.59;7213276;40;20263;31
2023/10/17 10:52:08;;;;;;;9.73;4.97;;;;;;;9.93;63.79;99247.22;7264379;39;20263;31
2023/10/17 10:57:46;;;;;;;6.90;4.90;;;;;;;9.92;63.44;99231.22;7303595;39;20263;31
2023/10/17 11:03:21;;;;;;;6.53;4.63;;;;;;;9.98;63.39;99232.41;7269018;40;20256;31
2023/10/17 11:08:54;;;;;;;6.03;4.50;;;;;;;10.18;63.32;99240.09;7078646;40;20273;31
2023/10/17 11:14:31;;;;;;;6.97;4.90;;;;;;;10.35;63.13;99219.47;7272080;39;20252;31
2023/10/17 11:19:55;;;;;;;7.63;4.70;;;;;;;10.58;62.43;99211.56;7216617;40;20251;31
2023/10/17 11:25:27;;;;;;;8.20;4.95;;;;;;;10.81;62.34;99194.59;7238777;40;21329;31
2023/10/17 11:31:12;;;;;;;7.73;4.90;;;;;;;10.98;61.77;99195.41;7235193;40;20245;31
2023/10/17 11:36:25;;;;;;;8.15;4.75;;;;;;;11.01;61.61;99195.09;7274996;40;20244;31
2023/10/17 11:42:00;;;;;;;7.80;4.90;;;;;;;11.25;61.10;99191.50;7274688;40;20326;31
2023/10/17 11:47:37;;;;;;;7.65;4.90;;;;;;;11.52;59.78;99188.44;7208429;40;20228;31
2023/10/17 11:52:58;;;;;;;12.70;5.70;;;;;;;11.41;60.49;99187.97;7234026;40;21464;31
2023/10/17 11:58:37;;;;;;;6.60;5.00;;;;;;;11.19;61.51;99173.31;7267404;39;20261;31
2023/10/17 12:04:16;;;;;;;8.97;5.20;;;;;;;11.14;60.85;99178.41;7274864;39;20347;31
2023/10/17 12:09:34;;;;;;;10.20;5.30;;;;;;;11.28;61.17;99180.38;7236519;40;20241;31
2023/10/17 12:15:13;;;;;;;8.95;5.65;;;;;;;11.43;61.06;99189.47;7249421;39;20264;31
2023/10/17 12:20:49;;;;;;;9.97;5.57;;;;;;;11.33;61.05;99188.81;7229823;40;20246;31
2023/10/17 12:26:26;;;;;;;10.55;5.60;;;;;;;11.39;61.48;99180.03;7218914;40;20242;31
2023/10/17 12:31:59;;;;;;;8.00;5.60;;;;;;;11.36;60.88;99157.94;7260668;40;20279;31
2023/10/17 12:37:43;;;;;;;8.30;5.90;;;;;;;11.36;60.43;99156.09;7255307;40;20263;31
2023/10/17 12:47:59;;;;;;;11.03;6.30;;;;;;;11.54;60.48;99143.19;7254286;39;20326;31
2023/10/17 12:58:40;;;;;;;7.60;5.40;;;;;;;11.73;60.12;99137.44;7305077;39;20318;31
2023/10/17 13:09:22;;;;;;;8.33;5.57;;;;;;;11.91;59.84;99122.81;7362568;39;20274;31
2023/10/17 13:20:07;;;;;;;7.70;5.67;;;;;;;11.99;59.28;99110.13;7347511;39;20241;31
2023/10/17 13:25:21;;;;;;;8.00;5.47;;;;;;;12.09;59.58;99099.94;7316345;39;20244;31
2023/10/17 13:30:41;;;;;;;7.22;5.72;;;;;;;12.05;59.76;99100.47;7299854;39;20275;31
2023/10/17 13:36:17;;;;;;;7.40;5.20;;;;;;;12.11;59.15;99089.78;7318687;39;20255;31
2023/10/17 13:41:38;;;;;;;9.27;6.00;;;;;;;12.19;59.18;99095.16;7296564;39;20268;31
2023/10/17 13:52:17;;;;;;;8.23;5.80;;;;;;;12.14;59.54;99080.47;7340280;39;20264;31
2023/10/17 13:57:55;;;;;;;9.80;5.80;;;;;;;12.18;59.29;99088.06;7294410;39;20311;31
2023/10/17 14:03:31;;;;;;;13.20;6.95;;;;;;;12.14;59.30;99085.87;7278108;39;20317;31
2023/10/17 14:09:14;;;;;;;8.17;5.57;;;;;;;12.17;59.84;99075.56;7219003;40;20336;31
2023/10/17 14:14:41;;;;;;;6.82;4.97;;;;;;;12.31;59.28;99071.22;7225955;40;20254;31
2023/10/17 14:20:28;;;;;;;7.73;5.20;;;;;;;12.50;59.17;99065.34;7129458;40;20313;31
2023/10/17 14:26:09;;;;;;;8.87;5.83;;;;;;;12.36;59.70;99065.28;7156953;40;20411;31
2023/10/17 14:31:44;;;;;;;7.20;5.17;;;;;;;12.36;59.20;99068.00;7165525;40;20242;31
2023/10/17 14:37:18;;;;;;;6.10;5.03;;;;;;;12.37;60.00;99072.38;7171215;40;20239;31
2023/10/17 14:42:55;;;;;;;6.57;4.80;;;;;;;12.17;60.72;99059.34;7198143;40;20265;31
2023/10/17 14:48:17;;;;;;;9.20;5.30;;;;;;;12.14;60.59;99069.69;7230010;40;20248;31
2023/10/17 14:53:37;;;;;;;7.55;6.00;;;;;;;12.11;60.50;99070.84;7225796;40;20245;31
2023/10/17 14:59:13;;;;;;;7.85;5.30;;;;;;;11.98;60.60;99062.50;7263413;39;20245;31
2023/10/17 15:04:52;;;;;;;7.83;5.50;;;;;;;11.94;61.58;99065.75;7285546;40;20240;31
2023/10/17 15:10:24;;;;;;;7.80;5.27;;;;;;;11.89;61.47;99060.88;7295247;39;20389;31
2023/10/17 15:16:02;;;;;;;8.53;5.20;;;;;;;11.72;61.85;99048.50;7260443;39;20253;31
2023/10/17 15:21:36;;;;;;;6.45;5.35;;;;;;;11.71;62.40;99052.19;7253018;39;20266;31
2023/10/17 15:27:14;;;;;;;10.95;5.60;;;;;;;11.59;62.61;99046.34;7177624;40;20253;31
2023/10/17 15:32:48;;;;;;;9.20;4.80;;;;;;;11.49;62.21;99051.13;7197463;40;20402;31
2023/10/17 15:38:08;;;;;;;5.90;4.67;;;;;;;11.43;62.87;99059.06;7194908;40;20315;31
2023/10/17 15:43:43;;;;;;;9.00;4.55;;;;;;;11.41;62.62;99053.03;7266209;40;20242;31
2023/10/17 15:49:17;;;;;;;7.72;5.03;;;;;;;11.28;63.04;99051.72;7299611;40;20326;31
2023/10/17 15:54:37;;;;;;;7.03;4.90;;;;;;;11.29;62.98;99061.50;7244149;40;20321;31
2023/10/17 15:59:58;;;;;;;9.27;4.77;;;;;;;11.26;63.29;99061.84;7218702;40;20243;31
2023/10/17 16:05:33;;;;;;;8.27;5.13;;;;;;;11.26;63.70;99059.16;7235917;40;20261;31
2023/10/17 16:11:08;;;;;;;7.35;4.70;;;;;;;11.21;63.35;99056.13;7247223;39;20434;31
2023/10/17 16:16:28;;;;;;;7.90;4.70;;;;;;;11.13;64.20;99060.72;7269480;40;20253;31
2023/10/17 16:22:04;;;;;;;6.10;4.30;;;;;;;11.04;64.07;99064.44;7237160;40;20231;31
2023/10/17 16:27:26;;;;;;;8.10;4.70;;;;;;;11.09;64.15;99067.47;7287402;40;20309;31
2023/10/17 16:33:01;;;;;;;6.87;4.43;;;;;;;11.00;64.22;99069.34;7288717;40;20244;31
2023/10/17 16:38:39;;;;;;;6.80;4.77;;;;;;;10.91;64.96;99069.53;7287778;39;20241;31
2023/10/17 16:43:59;;;;;;;10.50;4.20;;;;;;;10.85;64.94;99077.28;7277127;40;20252;31
2023/10/17 16:49:20;;;;;;;8.13;4.40;;;;;;;10.85;64.82;99080.00;7258826;39;20303;31
2023/10/17 16:54:55;;;;;;;6.90;4.50;;;;;;;10.72;64.54;99071.59;7245684;39;20248;31
2023/10/17 17:00:31;;;;;;;7.00;4.40;;;;;;;10.70;65.06;99081.72;7184760;40;20252;31
2023/10/17 17:05:51;;;;;;;6.73;4.40;;;;;;;10.68;65.06;99081.03;7194130;40;20346;31
2023/10/17 17:11:27;;;;;;;7.23;4.17;;;;;;;10.63;65.72;99080.69;7255285;40;20260;31
2023/10/17 17:17:03;;;;;;;5.70;4.00;;;;;;;10.44;66.09;99078.37;7271638;39;20261;31
2023/10/17 17:22:24;;;;;;;6.70;4.30;;;;;;;10.37;65.77;99083.56;7216000;40;20258;31
2023/10/17 17:27:57;;;;;;;6.50;4.60;;;;;;;10.37;66.61;99088.09;7168208;40;20245;31
2023/10/17 17:33:16;;;;;;;8.20;4.90;;;;;;;10.42;65.91;99085.75;6984517;40;20297;31
2023/10/17 17:38:39;;;;;;;10.50;5.50;;;;;;;10.32;65.83;99090.47;7251748;40;20326;31
2023/10/17 17:44:12;;;;;;;7.20;5.03;;;;;;;10.22;66.12;99082.53;7277687;40;20243;31
2023/10/17 17:49:48;;;;;;;8.87;4.73;;;;;;;10.15;66.11;99073.44;7259670;40;20333;31
2023/10/17 17:55:23;;;;;;;6.10;4.57;;;;;;;10.07;66.31;99072.56;7180399;40;20240;31
2023/10/17 18:00:59;;;;;;;8.80;5.67;;;;;;;9.90;66.57;99069.03;7146520;40;20354;31
2023/10/17 18:06:20;;;;;;;7.15;5.05;;;;;;;9.91;66.83;99068.84;7167438;40;20293;31
2023/10/17 18:17:19;;;;;;;7.40;4.50;;;;;;;9.78;67.63;99060.41;7255971;40;20255;31
2023/10/17 18:27:57;;;;;;;7.97;4.37;;;;;;;9.75;67.35;99057.19;7249594;40;20253;31
2023/10/17 18:33:33;;;;;;;7.10;4.82;;;;;;;9.71;67.63;99054.00;7221572;40;20626;31
2023/10/17 18:38:58;;;;;;;6.30;4.60;;;;;;;9.65;67.79;99041.22;7236774;40;20242;31
2023/10/17 18:44:28;;;;;;;5.43;3.77;;;;;;;9.62;68.33;99038.00;7278365;40;20823;31
2023/10/17 18:50:06;;;;;;;6.20;4.10;;;;;;;9.64;67.68;99034.16;7253865;40;20721;31
2023/10/17 18:55:25;;;;;;;4.77;3.50;;;;;;;9.70;67.19;99036.16;7221420;40;20410;31
2023/10/17 19:00:45;;;;;;;6.03;4.23;;;;;;;9.75;67.86;99038.34;7297415;39;20260;31
2023/10/17 19:06:22;;;;;;;5.30;4.17;;;;;;;9.71;67.62;99024.38;7288407;40;20277;31
2023/10/17 19:11:42;;;;;;;4.43;3.40;;;;;;;9.72;67.25;99027.94;7263736;40;20803;31
2023/10/17 19:17:17;;;;;;;4.60;3.50;;;;;;;9.72;67.32;99020.69;7295870;39;20272;31
2023/10/17 19:22:53;;;;;;;6.67;3.87;;;;;;;9.71;68.05;99026.25;7275449;40;20246;31
2023/10/17 19:28:29;;;;;;;4.80;3.50;;;;;;;9.72;67.58;99027.94;7184259;40;20343;31
2023/10/17 19:34:05;;;;;;;5.15;3.70;;;;;;;9.72;67.70;99025.25;7189173;40;20257;31
2023/10/17 19:39:38;;;;;;;5.30;3.95;;;;;;;9.69;67.52;99023.72;7175757;40;20552;31
2023/10/17 19:45:13;;;;;;;5.25;3.65;;;;;;;9.71;67.69;99019.00;7177078;40;20475;31
2023/10/17 19:50:35;;;;;;;6.25;4.40;;;;;;;9.64;67.25;99023.38;7209364;40;20380;31
2023/10/17 19:56:10;;;;;;;4.83;3.67;;;;;;;9.56;68.19;99025.22;7238203;40;20318;31
2023/10/17 20:01:45;;;;;;;5.63;3.90;;;;;;;9.58;67.67;99023.19;7232764;40;20347;31
2023/10/17 20:12:27;;;;;;;8.50;3.43;;;;;;;9.48;67.61;99008.03;7275640;39;20273;31
2023/10/17 20:17:47;;;;;;;4.90;3.50;;;;;;;9.49;68.00;99000.81;7224269;40;20257;31
2023/10/17 20:23:22;;;;;;;4.30;3.75;;;;;;;9.48;67.51;98997.25;7242360;40;20260;31
2023/10/17 20:28:58;;;;;;;4.90;3.70;;;;;;;9.34;68.17;98989.84;7196888;40;20467;31
2023/10/17 20:34:33;;;;;;;5.20;3.30;;;;;;;9.31;68.52;98982.09;7155669;40;20267;31
2023/10/17 20:40:12;;;;;;;7.05;3.60;;;;;;;9.32;67.87;98978.41;7177562;40;20341;31
2023/10/17 20:45:47;;;;;;;5.07;3.67;;;;;;;9.29;68.23;98984.12;7187734;40;20467;31
2023/10/17 20:51:10;;;;;;;6.60;3.83;;;;;;;9.32;67.80;98983.78;7167665;40;20250;31
2023/10/17 20:56:27;;;;;;;7.20;3.42;;;;;;;9.29;67.61;98983.28;7179875;40;21334;31
2023/10/17 21:02:03;;;;;;;7.23;3.30;;;;;;;9.20;68.64;98977.03;7222405;40;20257;31
2023/10/17 21:07:37;;;;;;;4.60;3.50;;;;;;;9.19;68.56;98972.66;7211143;40;20245;31
2023/10/17 21:12:58;;;;;;;4.20;3.10;;;;;;;9.25;67.98;98971.16;7216253;40;20274;31
2023/10/17 21:18:36;;;;;;;6.25;3.70;;;;;;;9.18;68.06;98965.59;7243259;40;20272;31
2023/10/17 21:28:59;;;;;;;6.13;3.50;;;;;;;9.18;67.96;98951.28;7305687;39;20494;31
2023/10/17 21:39:38;;;;;;;7.62;3.36;;;;;;;9.03;68.43;98937.66;7339159;39;20257;31
2023/10/17 21:44:59;;;;;;;5.73;3.70;;;;;;;9.06;68.79;98934.63;7320594;39;21481;31
2023/10/17 21:50:34;;;;;;;5.10;3.45;;;;;;;9.04;68.75;98939.31;7257959;40;20276;31
2023/10/17 22:01:15;;;;;;;4.37;3.37;;;;;;;8.90;68.99;98929.22;7217627;40;20503;31
2023/10/17 22:06:52;;;;;;;5.70;3.53;;;;;;;8.87;68.52;98927.69;7266403;40;20261;31
2023/10/17 22:12:26;;;;;;;4.20;3.10;;;;;;;8.86;69.21;98930.53;7197351;40;20246;31
2023/10/17 22:18:02;;;;;;;5.25;3.35;;;;;;;8.77;69.76;98918.94;7209159;40;20245;31
2023/10/17 22:23:37;;;;;;;6.37;3.90;;;;;;;8.75;69.66;98914.69;7226334;40;20906;31
2023/10/17 22:28:57;;;;;;;4.80;3.80;;;;;;;8.69;69.28;98910.81;7227639;40;20762;31
2023/10/17 22:34:34;;;;;;;4.90;3.30;;;;;;;8.67;69.33;98895.87;7277404;39;20273;31
2023/10/17 22:39:53;;;;;;;6.37;4.00;;;;;;;8.64;68.65;98901.56;7256065;40;20840;31
2023/10/17 22:45:29;;;;;;;6.20;4.07;;;;;;;8.59;70.29;98904.75;7276763;40;20789;31
2023/10/17 22:51:05;;;;;;;5.85;4.05;;;;;;;8.59;69.84;98905.59;7236037;40;20712;31
2023/10/17 22:56:41;;;;;;;4.90;3.60;;;;;;;8.62;70.16;98914.31;7216356;40;20543;31
2023/10/17 23:02:13;;;;;;;7.07;4.00;;;;;;;8.55;69.52;98900.69;7214798;40;20236;31
2023/10/17 23:07:49;;;;;;;7.83;3.93;;;;;;;8.54;70.73;98899.84;7207777;40;20324;31
2023/10/17 23:13:24;;;;;;;5.85;4.10;;;;;;;8.48;70.37;98891.56;7220515;40;20260;31
2023/10/17 23:18:59;;;;;;;5.15;3.60;;;;;;;8.41;70.68;98886.03;7247171;40;20274;31
2023/10/17 23:24:35;;;;;;;5.80;4.00;;;;;;;8.39;70.11;98885.34;7257123;39;20517;31
2023/10/17 23:29:55;;;;;;;4.95;3.70;;;;;;;8.44;69.75;98885.69;7234962;40;20249;31
2023/10/17 23:35:15;;;;;;;6.83;4.33;;;;;;;8.43;70.20;98889.38;7238395;40;20375;31
2023/10/17 23:40:51;;;;;;;6.37;3.93;;;;;;;8.35;70.63;98875.91;7225846;40;20264;31
2023/10/17 23:46:12;;;;;;;5.50;4.20;;;;;;;8.33;70.37;98877.09;7205638;40;20257;31
2023/10/17 23:51:47;;;;;;;6.30;4.30;;;;;;;8.32;70.87;98886.13;7222151;40;20281;31
2023/10/17 23:57:21;;;;;;;6.23;4.60;;;;;;;8.29;70.51;98870.31;7168014;40;20249;31
